Santa Ana, California
Current Conditions -  °F | °C
As of 2:53 AM on Sunday 21 Dec 2014 (Local Time) from KSNA Reporting Station
Overcast Overcast  
Wind Chill: 58°   Ceiling: 2300
Heat Index: 58°   Visibility: 10mi
Dew Point: 50°   Wind: 3mph
Humidity: 75%   Direction: 50°NE
Pressure: 30.12"   Gusts: NA
Location:  33.75°N, 117.87°W
Report Text: KSNA 211053Z AUTO 05003KT 10SM OVC023 14/10 A3012 RMK AO2 SLP200 T01440100 TSNO
Loading
Personal Weather Stations






























Interactive Weather Map New forecast layout! Learn more

10-Day Weather Forecast

Advertisements
Track Severe Weather on mobile